createdAt,value
2018-12-13T00:00:08.401Z,24.81
2018-12-13T00:01:08.570Z,24.84
2018-12-13T00:02:08.422Z,24.79
2018-12-13T00:03:08.425Z,24.75
2018-12-13T00:04:08.448Z,24.78
2018-12-13T00:05:08.476Z,24.88
2018-12-13T00:06:08.473Z,24.92
2018-12-13T00:07:08.637Z,24.94
2018-12-13T00:08:08.573Z,24.93
2018-12-13T00:09:08.533Z,25.01
2018-12-13T00:10:08.551Z,24.93
2018-12-13T00:11:08.613Z,24.88
2018-12-13T00:12:08.689Z,25.01
2018-12-13T00:13:08.601Z,24.99
2018-12-13T00:14:08.626Z,25.03
2018-12-13T00:15:08.660Z,25.00
2018-12-13T00:16:08.691Z,24.97
2018-12-13T00:17:08.863Z,25.00
2018-12-13T00:18:08.694Z,25.01
2018-12-13T00:19:08.750Z,25.00
2018-12-13T00:20:08.724Z,25.00
2018-12-13T00:21:08.742Z,25.12
2018-12-13T00:22:08.919Z,24.94
2018-12-13T00:23:08.820Z,25.06
2018-12-13T00:24:08.792Z,25.03
2018-12-13T00:25:08.820Z,24.99
2018-12-13T00:26:08.883Z,25.00
2018-12-13T00:27:08.942Z,24.99
2018-12-13T00:28:08.957Z,25.00
2018-12-13T00:29:08.907Z,25.00
2018-12-13T00:30:08.961Z,25.01
2018-12-13T00:31:08.942Z,25.03
2018-12-13T00:32:09.032Z,25.01
2018-12-13T00:33:08.987Z,25.01
2018-12-13T00:34:08.966Z,24.97
2018-12-13T00:35:09.022Z,25.06
2018-12-13T00:36:09.017Z,25.01
2018-12-13T00:37:09.062Z,25.01
2018-12-13T00:38:09.124Z,25.00
2018-12-13T00:39:09.086Z,24.99
2018-12-13T00:40:09.098Z,25.03
2018-12-13T00:41:09.078Z,25.06
2018-12-13T00:42:09.098Z,25.09
2018-12-13T00:43:09.198Z,25.03
2018-12-13T00:44:09.146Z,25.00
2018-12-13T00:45:09.181Z,25.01
2018-12-13T00:46:09.168Z,25.01
2018-12-13T00:47:09.289Z,25.04
2018-12-13T00:48:09.219Z,25.03
2018-12-13T00:49:09.250Z,25.03
2018-12-13T00:50:09.248Z,24.97
2018-12-13T00:51:09.270Z,24.96
2018-12-13T00:52:09.387Z,25.01
2018-12-13T00:53:09.352Z,25.00
2018-12-13T00:54:09.335Z,24.99
2018-12-13T00:55:09.378Z,25.03
2018-12-13T00:56:09.366Z,25.03
2018-12-13T00:57:09.491Z,24.99
2018-12-13T00:58:09.432Z,24.94
2018-12-13T00:59:09.410Z,25.00
2018-12-13T01:00:09.433Z,24.93
2018-12-13T01:01:09.437Z,25.00
2018-12-13T01:02:09.488Z,25.03
2018-12-13T01:03:09.517Z,24.94
2018-12-13T01:04:09.536Z,24.93
2018-12-13T01:05:09.618Z,24.94
2018-12-13T01:06:09.539Z,24.89
2018-12-13T01:07:09.545Z,25.00
2018-12-13T01:08:09.703Z,24.92
2018-12-13T01:09:09.617Z,24.89
2018-12-13T01:10:09.615Z,24.94
2018-12-13T01:11:09.601Z,25.01
2018-12-13T01:12:09.661Z,24.99
2018-12-13T01:13:09.725Z,25.01
2018-12-13T01:14:09.665Z,24.99
2018-12-13T01:15:09.685Z,24.99
2018-12-13T01:16:09.784Z,25.01
2018-12-13T01:17:09.722Z,25.03
2018-12-13T01:18:09.729Z,25.06
2018-12-13T01:19:09.756Z,25.09
2018-12-13T01:20:09.772Z,25.11
2018-12-13T01:21:09.880Z,25.11
2018-12-13T01:22:09.810Z,25.14
2018-12-13T01:23:09.876Z,25.21
2018-12-13T01:24:09.855Z,25.15
2018-12-13T01:25:09.865Z,25.18
2018-12-13T01:26:09.970Z,25.18
2018-12-13T01:27:09.908Z,25.22
2018-12-13T01:28:09.914Z,25.19
2018-12-13T01:29:09.985Z,25.21
2018-12-13T01:30:09.952Z,25.11
2018-12-13T01:31:10.073Z,25.18
2018-12-13T01:32:09.989Z,25.12
2018-12-13T01:33:09.996Z,25.21
2018-12-13T01:34:10.041Z,25.21
2018-12-13T01:35:10.091Z,25.26
2018-12-13T01:36:10.148Z,25.24
2018-12-13T01:37:10.072Z,25.25
2018-12-13T01:38:10.083Z,25.22
2018-12-13T01:39:10.106Z,25.29
2018-12-13T01:40:10.127Z,25.29
2018-12-13T01:41:10.219Z,25.30
2018-12-13T01:42:10.158Z,25.33
2018-12-13T01:43:10.428Z,25.25
2018-12-13T01:44:10.200Z,25.26
2018-12-13T01:45:10.254Z,25.24
2018-12-13T01:46:10.347Z,25.15
2018-12-13T01:47:10.246Z,25.22
2018-12-13T01:48:10.324Z,25.18
2018-12-13T01:49:10.261Z,25.21
2018-12-13T01:50:10.318Z,25.25
2018-12-13T01:51:10.396Z,25.21
2018-12-13T01:52:10.318Z,25.19
2018-12-13T01:53:10.332Z,25.12
2018-12-13T01:54:10.387Z,25.18
2018-12-13T01:55:10.377Z,25.11
2018-12-13T01:56:10.509Z,25.22
2018-12-13T01:57:10.417Z,25.22
2018-12-13T01:58:10.438Z,25.21
2018-12-13T01:59:10.449Z,25.12
2018-12-13T02:00:10.496Z,25.24
2018-12-13T02:01:10.677Z,25.19
2018-12-13T02:02:10.520Z,25.09
2018-12-13T02:03:10.516Z,25.12
2018-12-13T02:04:10.564Z,25.09
2018-12-13T02:05:10.588Z,25.12
2018-12-13T02:06:10.710Z,25.04
2018-12-13T02:07:10.632Z,24.97
2018-12-13T02:08:10.603Z,25.04
2018-12-13T02:09:10.668Z,25.03
2018-12-13T02:10:10.645Z,25.00
2018-12-13T02:11:10.830Z,25.03
2018-12-13T02:12:10.668Z,25.01
2018-12-13T02:13:10.739Z,25.03
2018-12-13T02:14:10.695Z,25.06
2018-12-13T02:15:10.743Z,25.01
2018-12-13T02:16:10.900Z,25.01
2018-12-13T02:17:10.747Z,25.00
2018-12-13T02:18:10.818Z,25.01
2018-12-13T02:19:10.811Z,25.01
2018-12-13T02:20:10.873Z,24.97
2018-12-13T02:21:10.924Z,24.92
2018-12-13T02:22:10.928Z,24.96
2018-12-13T02:23:10.928Z,24.94
2018-12-13T02:24:10.894Z,24.84
2018-12-13T02:25:10.887Z,24.92
2018-12-13T02:26:11.014Z,24.88
2018-12-13T02:27:10.941Z,24.92
2018-12-13T02:28:10.950Z,24.84
2018-12-13T02:29:10.970Z,24.88
2018-12-13T02:30:10.979Z,24.84
2018-12-13T02:31:11.137Z,24.88
2018-12-13T02:32:11.008Z,24.93
2018-12-13T02:33:11.031Z,24.82
2018-12-13T02:34:11.069Z,24.85
2018-12-13T02:35:11.058Z,24.82
2018-12-13T02:36:11.194Z,24.85
2018-12-13T02:37:11.127Z,24.78
2018-12-13T02:38:11.131Z,24.81
2018-12-13T02:39:11.151Z,24.82
2018-12-13T02:40:11.207Z,24.75
2018-12-13T02:41:11.349Z,24.65
2018-12-13T02:42:11.239Z,24.53
2018-12-13T02:43:11.207Z,24.41
2018-12-13T02:44:11.228Z,24.36
2018-12-13T02:45:11.258Z,24.41
2018-12-13T02:46:11.350Z,24.34
2018-12-13T02:47:11.302Z,24.32
2018-12-13T02:48:11.298Z,24.28
2018-12-13T02:49:11.323Z,24.19
2018-12-13T02:50:11.351Z,24.29
2018-12-13T02:51:11.487Z,24.29
2018-12-13T02:52:11.391Z,24.14
2018-12-13T02:53:11.412Z,24.18
2018-12-13T02:54:11.427Z,24.18
2018-12-13T02:55:11.446Z,24.19
2018-12-13T02:56:11.510Z,24.10
2018-12-13T02:57:11.435Z,24.11
2018-12-13T02:58:11.525Z,24.11
2018-12-13T02:59:11.476Z,24.11
2018-12-13T03:00:11.514Z,24.06
2018-12-13T03:01:11.682Z,24.03
2018-12-13T03:02:11.527Z,24.03
2018-12-13T03:03:11.590Z,23.91
2018-12-13T03:04:11.574Z,23.82
2018-12-13T03:05:11.682Z,23.85
2018-12-13T03:06:11.754Z,23.82
2018-12-13T03:07:13.893Z,23.73
2018-12-13T03:08:11.633Z,23.66
2018-12-13T03:09:11.700Z,23.59
2018-12-13T03:10:11.683Z,23.70
2018-12-13T03:11:11.747Z,23.59
2018-12-13T03:12:11.729Z,23.55
2018-12-13T03:13:11.709Z,23.58
2018-12-13T03:15:11.761Z,23.48
2018-12-13T03:16:11.884Z,23.47
2018-12-13T03:17:11.802Z,23.39
2018-12-13T03:18:11.800Z,23.44
2018-12-13T03:19:11.871Z,23.48
2018-12-13T03:20:11.852Z,23.51
2018-12-13T03:21:11.921Z,23.52
2018-12-13T03:22:11.938Z,23.54
2018-12-13T03:23:11.902Z,23.59
2018-12-13T03:24:11.908Z,23.54
2018-12-13T03:25:11.922Z,23.55
2018-12-13T03:26:12.028Z,23.62
2018-12-13T03:27:11.946Z,23.59
2018-12-13T03:28:12.031Z,23.55
2018-12-13T03:29:12.055Z,23.48
2018-12-13T03:30:12.003Z,23.42
2018-12-13T03:31:12.145Z,23.33
2018-12-13T03:32:12.064Z,23.32
2018-12-13T03:33:12.062Z,23.11
2018-12-13T03:34:12.069Z,23.10
2018-12-13T03:35:12.147Z,23.01
2018-12-13T03:36:12.217Z,22.98
2018-12-13T03:37:12.172Z,22.95
2018-12-13T03:38:12.161Z,22.92
2018-12-13T03:39:12.249Z,22.88
2018-12-13T03:40:12.184Z,22.95
2018-12-13T03:41:12.275Z,22.91
2018-12-13T03:42:12.222Z,22.92
2018-12-13T03:43:12.214Z,22.91
2018-12-13T03:44:12.233Z,22.95
2018-12-13T03:45:12.247Z,22.95
2018-12-13T03:46:16.828Z,22.91
2018-12-13T03:47:12.308Z,23.01
2018-12-13T03:48:12.335Z,22.99
2018-12-13T03:49:12.317Z,22.98
2018-12-13T03:50:12.394Z,23.04
2018-12-13T03:51:12.460Z,22.86
2018-12-13T03:52:12.370Z,22.95
2018-12-13T03:53:12.425Z,22.92
2018-12-13T03:54:12.440Z,22.93
2018-12-13T03:55:12.427Z,22.86
2018-12-13T03:56:12.583Z,22.71
2018-12-13T03:57:12.458Z,22.68
2018-12-13T03:58:12.464Z,22.63
2018-12-13T03:59:12.492Z,22.62
2018-12-13T04:00:12.540Z,22.61
2018-12-13T04:01:12.622Z,22.49
2018-12-13T04:02:12.540Z,22.51
2018-12-13T04:03:12.601Z,22.55
2018-12-13T04:04:12.592Z,22.46
2018-12-13T04:05:12.602Z,22.49
2018-12-13T04:06:12.750Z,22.52
2018-12-13T04:07:12.668Z,22.41
2018-12-13T04:08:12.648Z,22.38
2018-12-13T04:09:12.655Z,22.47
2018-12-13T04:10:12.684Z,22.40
2018-12-13T04:11:12.752Z,22.36
2018-12-13T04:12:12.720Z,22.43
2018-12-13T04:13:12.736Z,22.41
2018-12-13T04:14:12.733Z,22.26
2018-12-13T04:15:12.781Z,22.30
2018-12-13T04:16:12.881Z,22.37
2018-12-13T04:17:12.791Z,22.43
2018-12-13T04:18:12.817Z,22.33
2018-12-13T04:19:12.868Z,22.49
2018-12-13T04:20:12.950Z,22.37
2018-12-13T04:21:12.906Z,22.38
2018-12-13T04:22:12.878Z,22.51
2018-12-13T04:23:12.875Z,22.49
2018-12-13T04:24:12.921Z,22.52
2018-12-13T04:25:13.067Z,22.55
2018-12-13T04:26:12.970Z,22.51
2018-12-13T04:27:12.964Z,22.46
2018-12-13T04:28:13.024Z,22.44
2018-12-13T04:29:12.974Z,22.52
2018-12-13T04:30:13.134Z,22.52
2018-12-13T04:31:13.019Z,22.40
2018-12-13T04:32:13.058Z,22.40
2018-12-13T04:33:13.044Z,22.37
2018-12-13T04:34:13.083Z,22.36
2018-12-13T04:35:13.144Z,22.37
2018-12-13T04:36:13.561Z,22.37
2018-12-13T04:37:13.164Z,22.38
2018-12-13T04:38:13.163Z,22.43
2018-12-13T04:39:13.161Z,22.25
2018-12-13T04:40:13.315Z,22.22
2018-12-13T04:41:13.190Z,22.23
2018-12-13T04:42:13.207Z,22.22
2018-12-13T04:43:13.225Z,22.18
2018-12-13T04:44:13.231Z,22.18
2018-12-13T04:45:13.312Z,22.15
2018-12-13T04:46:13.408Z,22.04
2018-12-13T04:47:13.289Z,21.97
2018-12-13T04:48:13.284Z,22.00
2018-12-13T04:49:13.313Z,21.84
2018-12-13T04:50:13.354Z,21.96
2018-12-13T04:51:13.387Z,21.89
2018-12-13T04:52:13.382Z,21.92
2018-12-13T04:53:13.435Z,21.97
2018-12-13T04:54:13.391Z,22.04
2018-12-13T04:55:13.463Z,22.12
2018-12-13T04:56:13.467Z,22.10
2018-12-13T04:57:13.459Z,22.08
2018-12-13T04:58:13.470Z,22.14
2018-12-13T04:59:13.513Z,22.07
2018-12-13T05:00:13.497Z,22.12
2018-12-13T05:01:13.653Z,22.12
2018-12-13T05:02:13.586Z,22.06
2018-12-13T05:03:13.536Z,22.10
2018-12-13T05:04:13.552Z,22.07
2018-12-13T05:05:13.582Z,22.08
2018-12-13T05:06:13.674Z,22.12
2018-12-13T05:07:13.661Z,22.12
2018-12-13T05:08:13.654Z,22.01
2018-12-13T05:09:13.667Z,22.03
2018-12-13T05:10:13.673Z,21.99
2018-12-13T05:11:13.764Z,21.96
2018-12-13T05:12:13.689Z,21.84
2018-12-13T05:13:13.698Z,21.88
2018-12-13T05:14:13.712Z,21.91
2018-12-13T05:15:13.740Z,21.80
2018-12-13T05:16:13.869Z,21.81
2018-12-13T05:17:13.815Z,21.81
2018-12-13T05:18:13.789Z,21.83
2018-12-13T05:19:13.788Z,21.74
2018-12-13T05:20:13.797Z,21.78
2018-12-13T05:21:13.994Z,21.68
2018-12-13T05:22:13.844Z,21.68
2018-12-13T05:23:13.845Z,21.68
2018-12-13T05:24:13.877Z,21.62
2018-12-13T05:25:13.895Z,21.69
2018-12-13T05:26:14.015Z,21.69
2018-12-13T05:27:13.972Z,21.74
2018-12-13T05:28:13.945Z,21.68
2018-12-13T05:29:13.971Z,21.65
2018-12-13T05:30:14.046Z,21.66
2018-12-13T05:31:14.145Z,21.66
2018-12-13T05:32:14.041Z,21.65
2018-12-13T05:33:14.041Z,21.51
2018-12-13T05:34:14.046Z,21.59
2018-12-13T05:35:14.044Z,21.54
2018-12-13T05:36:14.172Z,21.59
2018-12-13T05:37:14.104Z,21.53
2018-12-13T05:38:14.099Z,21.44
2018-12-13T05:39:14.141Z,21.48
2018-12-13T05:40:14.135Z,21.45
2018-12-13T05:41:14.263Z,21.50
2018-12-13T05:42:14.183Z,21.48
2018-12-13T05:43:14.203Z,21.50
2018-12-13T05:44:14.214Z,21.51
2018-12-13T05:45:14.260Z,21.56
2018-12-13T05:46:14.246Z,21.56
2018-12-13T05:47:14.277Z,21.63
2018-12-13T05:48:14.268Z,21.54
2018-12-13T05:49:14.272Z,21.56
2018-12-13T05:50:14.306Z,21.65
2018-12-13T05:51:14.345Z,21.69
2018-12-13T05:52:14.417Z,21.65
2018-12-13T05:53:14.378Z,21.85
2018-12-13T05:54:14.408Z,21.84
2018-12-13T05:55:14.380Z,21.94
2018-12-13T05:56:14.398Z,22.01
2018-12-13T05:57:14.512Z,21.97
2018-12-13T05:58:14.434Z,21.97
2018-12-13T05:59:14.450Z,21.88
2018-12-13T06:00:14.458Z,21.89
2018-12-13T06:01:14.469Z,21.81
2018-12-13T06:02:14.514Z,21.84
2018-12-13T06:03:14.537Z,21.80
2018-12-13T06:04:14.537Z,21.84
2018-12-13T06:05:14.540Z,21.81
2018-12-13T06:06:14.559Z,21.81
2018-12-13T06:07:14.554Z,21.83
2018-12-13T06:08:14.610Z,21.77
2018-12-13T06:09:14.600Z,21.69
2018-12-13T06:10:14.651Z,21.68
2018-12-13T06:11:14.616Z,21.72
2018-12-13T06:12:14.664Z,21.74
2018-12-13T06:13:14.678Z,21.68
2018-12-13T06:14:14.828Z,21.62
2018-12-13T06:15:14.681Z,21.60
2018-12-13T06:16:14.740Z,21.51
2018-12-13T06:17:14.710Z,21.53
2018-12-13T06:18:14.753Z,21.41
2018-12-13T06:19:14.858Z,21.44
2018-12-13T06:20:14.773Z,21.33
2018-12-13T06:21:14.779Z,21.26
2018-12-13T06:22:14.822Z,21.30
2018-12-13T06:23:14.881Z,21.23
2018-12-13T06:25:14.993Z,21.20
2018-12-13T06:26:14.891Z,21.23
2018-12-13T06:27:14.903Z,21.20
2018-12-13T06:28:14.886Z,21.14
2018-12-13T06:29:14.906Z,21.11
2018-12-13T06:30:22.757Z,21.10
2018-12-13T06:31:14.936Z,21.04
2018-12-13T06:32:15.003Z,21.14
2018-12-13T06:33:14.993Z,21.07
2018-12-13T06:34:14.997Z,21.08
2018-12-13T06:35:15.025Z,21.07
2018-12-13T06:36:15.051Z,21.08
2018-12-13T06:37:15.058Z,21.10
2018-12-13T06:38:15.064Z,21.17
2018-12-13T06:39:15.122Z,21.22
2018-12-13T06:40:15.707Z,21.20
2018-12-13T06:41:15.119Z,21.25
2018-12-13T06:42:15.366Z,21.23
2018-12-13T06:43:15.150Z,21.19
2018-12-13T06:44:15.170Z,21.22
2018-12-13T06:45:15.160Z,21.23
2018-12-13T06:46:15.181Z,21.37
2018-12-13T06:47:23.368Z,21.33
2018-12-13T06:48:15.220Z,21.30
2018-12-13T06:49:15.257Z,21.43
2018-12-13T06:50:15.314Z,21.44
2018-12-13T06:51:15.270Z,21.47
2018-12-13T06:52:15.331Z,21.50
2018-12-13T06:53:15.345Z,21.48
2018-12-13T06:54:15.334Z,21.54
2018-12-13T06:55:15.357Z,21.53
2018-12-13T06:56:15.365Z,21.51
2018-12-13T06:57:15.372Z,21.56
2018-12-13T06:58:15.431Z,21.58
2018-12-13T06:59:15.457Z,21.53
2018-12-13T07:00:15.408Z,21.47
2018-12-13T07:01:15.446Z,21.40
2018-12-13T07:02:15.423Z,21.40
2018-12-13T07:03:15.458Z,21.47
2018-12-13T07:04:15.502Z,21.44
2018-12-13T07:05:15.485Z,21.47
2018-12-13T07:06:15.491Z,21.30
2018-12-13T07:07:15.506Z,21.26
2018-12-13T07:08:15.532Z,21.19
2018-12-13T07:09:15.562Z,21.19
2018-12-13T07:10:15.590Z,21.23
2018-12-13T07:11:15.649Z,21.13
2018-12-13T07:12:15.601Z,21.10
2018-12-13T07:13:15.623Z,21.07
2018-12-13T07:14:15.646Z,20.95
2018-12-13T07:15:15.647Z,20.93
2018-12-13T07:16:15.919Z,20.82
2018-12-13T07:17:15.679Z,20.88
2018-12-13T07:18:15.712Z,20.90
2018-12-13T07:19:15.705Z,20.93
2018-12-13T07:20:15.742Z,20.90
2018-12-13T07:21:15.805Z,20.93
2018-12-13T07:22:15.762Z,20.88
2018-12-13T07:23:15.824Z,20.82
2018-12-13T07:24:15.802Z,20.80
2018-12-13T07:25:15.846Z,20.83
2018-12-13T07:26:15.835Z,20.75
2018-12-13T07:27:15.846Z,20.63
2018-12-13T07:28:15.950Z,20.73
2018-12-13T07:29:15.885Z,20.73
2018-12-13T07:30:15.894Z,20.68
2018-12-13T07:31:15.895Z,20.67
2018-12-13T07:32:15.928Z,20.66
2018-12-13T07:33:16.053Z,20.63
2018-12-13T07:34:15.963Z,20.63
2018-12-13T07:35:15.971Z,20.63
2018-12-13T07:36:15.985Z,20.58
2018-12-13T07:37:16.097Z,20.60
2018-12-13T07:38:16.158Z,20.59
2018-12-13T07:39:16.027Z,20.67
2018-12-13T07:40:16.072Z,20.63
2018-12-13T07:41:16.053Z,20.59
2018-12-13T07:42:16.060Z,20.63
2018-12-13T07:43:16.078Z,20.63
2018-12-13T07:44:16.136Z,20.63
2018-12-13T07:45:16.121Z,20.73
2018-12-13T07:46:16.176Z,20.77
2018-12-13T07:47:16.138Z,20.71
2018-12-13T07:48:16.205Z,20.63
2018-12-13T07:49:16.184Z,20.73
2018-12-13T07:50:16.214Z,20.56
2018-12-13T07:51:16.218Z,20.71
2018-12-13T07:52:16.232Z,20.73
2018-12-13T07:53:16.249Z,20.71
2018-12-13T07:54:16.247Z,20.74
2018-12-13T07:55:16.274Z,20.71
2018-12-13T07:56:16.320Z,20.67
2018-12-13T07:57:16.319Z,20.67
2018-12-13T07:58:16.309Z,20.64
2018-12-13T07:59:16.342Z,20.71
2018-12-13T08:00:16.496Z,20.74
2018-12-13T08:01:16.396Z,20.77
2018-12-13T08:02:16.374Z,20.78
2018-12-13T08:03:16.401Z,20.75
2018-12-13T08:04:16.402Z,20.88
2018-12-13T08:05:16.448Z,20.85
2018-12-13T08:06:16.564Z,20.88
2018-12-13T08:07:16.447Z,20.93
2018-12-13T08:08:20.862Z,20.90
2018-12-13T08:09:16.519Z,20.89
2018-12-13T08:10:16.495Z,20.90
2018-12-13T08:11:16.619Z,20.90
2018-12-13T08:12:16.510Z,20.90
2018-12-13T08:13:16.536Z,20.93
2018-12-13T08:14:16.613Z,20.96
2018-12-13T08:15:16.625Z,21.00
2018-12-13T08:16:16.714Z,20.95
2018-12-13T08:17:16.621Z,21.07
2018-12-13T08:18:16.626Z,21.08
2018-12-13T08:19:16.632Z,21.10
2018-12-13T08:20:16.645Z,21.11
2018-12-13T08:21:16.755Z,21.08
2018-12-13T08:22:16.669Z,21.03
2018-12-13T08:23:16.694Z,21.13
2018-12-13T08:24:16.713Z,21.08
2018-12-13T08:25:16.710Z,21.13
2018-12-13T08:26:16.846Z,21.19
2018-12-13T08:27:16.758Z,21.22
2018-12-13T08:28:16.760Z,21.17
2018-12-13T08:29:16.805Z,21.19
2018-12-13T08:30:16.792Z,21.17
2018-12-13T08:31:17.035Z,21.17
2018-12-13T08:32:16.879Z,21.20
2018-12-13T08:33:16.850Z,21.32
2018-12-13T08:34:16.889Z,21.30
2018-12-13T08:35:16.870Z,21.40
2018-12-13T08:36:17.055Z,21.48
2018-12-13T08:37:16.927Z,21.50
2018-12-13T08:38:16.998Z,21.58
2018-12-13T08:39:16.956Z,21.62
2018-12-13T08:40:16.964Z,21.69
2018-12-13T08:41:17.131Z,21.77
2018-12-13T08:42:17.042Z,21.72
2018-12-13T08:43:17.037Z,21.77
2018-12-13T08:44:17.030Z,21.78
2018-12-13T08:45:17.045Z,21.81
2018-12-13T08:46:17.091Z,21.89
2018-12-13T08:47:17.079Z,21.84
2018-12-13T08:48:17.076Z,21.83
2018-12-13T08:49:17.133Z,21.88
2018-12-13T08:50:17.121Z,21.97
2018-12-13T08:51:17.346Z,22.03
2018-12-13T08:52:17.158Z,22.07
2018-12-13T08:53:17.231Z,22.14
2018-12-13T08:54:17.177Z,22.15
2018-12-13T08:55:17.221Z,22.22
2018-12-13T08:56:17.229Z,22.28
2018-12-13T08:57:17.376Z,22.40
2018-12-13T08:58:17.261Z,22.38
2018-12-13T08:59:17.273Z,22.44
2018-12-13T09:00:17.283Z,22.52
2018-12-13T09:01:17.300Z,22.58
2018-12-13T09:02:17.356Z,22.81
2018-12-13T09:03:17.323Z,23.02
2018-12-13T09:04:17.389Z,23.36
2018-12-13T09:05:17.406Z,23.69
2018-12-13T09:06:17.410Z,24.06
2018-12-13T09:07:17.397Z,24.37
2018-12-13T09:08:17.618Z,24.78
2018-12-13T09:09:17.436Z,25.00
2018-12-13T09:10:17.460Z,25.26
2018-12-13T09:11:17.481Z,25.51
2018-12-13T09:12:17.520Z,25.78
2018-12-13T09:13:17.674Z,26.06
2018-12-13T09:14:17.524Z,26.34
2018-12-13T09:15:17.564Z,26.67
2018-12-13T09:16:17.545Z,26.98
2018-12-13T09:17:17.580Z,27.18
2018-12-13T09:18:17.734Z,27.47
2018-12-13T09:19:17.624Z,27.75
2018-12-13T09:20:17.637Z,27.81
2018-12-13T09:21:17.716Z,28.06
2018-12-13T09:22:17.669Z,28.30
2018-12-13T09:23:17.794Z,28.49
2018-12-13T09:24:17.736Z,28.72
2018-12-13T09:25:17.729Z,28.93
2018-12-13T09:26:17.757Z,29.06
2018-12-13T09:27:17.757Z,29.21
2018-12-13T09:28:17.934Z,29.47
2018-12-13T09:29:17.793Z,29.73
2018-12-13T09:30:17.815Z,29.81
2018-12-13T09:31:17.835Z,30.11
2018-12-13T09:32:17.858Z,30.23
2018-12-13T09:33:17.996Z,30.49
2018-12-13T09:34:17.945Z,30.62
2018-12-13T09:35:17.927Z,30.91
2018-12-13T09:36:17.971Z,30.88
2018-12-13T09:37:17.969Z,31.05
2018-12-13T09:38:18.155Z,31.30
2018-12-13T09:39:17.997Z,31.44
2018-12-13T09:40:18.038Z,31.64
2018-12-13T09:41:18.085Z,31.81
2018-12-13T09:42:18.064Z,32.01
2018-12-13T09:43:18.246Z,31.97
2018-12-13T09:44:18.115Z,31.97
2018-12-13T09:45:18.172Z,32.02
2018-12-13T09:46:18.156Z,32.02
2018-12-13T09:47:18.192Z,32.27
2018-12-13T09:48:18.310Z,32.39
2018-12-13T09:49:18.247Z,32.49
2018-12-13T09:50:18.275Z,32.59
2018-12-13T09:51:18.297Z,32.64
2018-12-13T09:52:18.292Z,32.63
2018-12-13T09:53:18.535Z,32.68
2018-12-13T09:54:18.350Z,32.91
2018-12-13T09:55:18.779Z,33.08
2018-12-13T09:56:18.379Z,33.23
2018-12-13T09:57:18.520Z,33.44
2018-12-13T09:58:18.686Z,33.51
2018-12-13T09:59:18.473Z,33.81
2018-12-13T10:00:18.467Z,33.97
2018-12-13T10:01:18.484Z,34.10
2018-12-13T10:02:18.527Z,34.13
2018-12-13T10:03:18.733Z,34.26
2018-12-13T10:04:18.548Z,33.92
2018-12-13T10:05:19.340Z,33.79
2018-12-13T10:06:18.607Z,33.57
2018-12-13T10:07:18.651Z,33.45
2018-12-13T10:08:18.767Z,33.63
2018-12-13T10:09:18.692Z,33.73
2018-12-13T10:10:18.707Z,33.42
2018-12-13T10:11:18.756Z,33.50
2018-12-13T10:12:18.763Z,33.98
2018-12-13T10:13:18.810Z,34.35
2018-12-13T10:14:18.797Z,34.47
2018-12-13T10:15:19.016Z,34.59
2018-12-13T10:16:18.884Z,34.83
2018-12-13T10:17:18.899Z,34.96
2018-12-13T10:18:18.896Z,34.96
2018-12-13T10:19:18.902Z,35.10
2018-12-13T10:20:19.076Z,35.27
2018-12-13T10:21:18.994Z,35.39
2018-12-13T10:22:19.001Z,35.30
2018-12-13T10:23:19.029Z,35.44
2018-12-13T10:24:19.065Z,35.79
2018-12-13T10:25:19.161Z,35.91
2018-12-13T10:26:19.078Z,36.13
2018-12-13T10:27:19.153Z,36.22
2018-12-13T10:28:19.176Z,36.22
2018-12-13T10:29:19.166Z,36.20
2018-12-13T10:30:19.290Z,36.05
2018-12-13T10:31:19.232Z,35.87
2018-12-13T10:32:19.253Z,35.79
2018-12-13T10:33:19.278Z,35.69
2018-12-13T10:34:19.286Z,35.68
2018-12-13T10:35:19.364Z,35.52
2018-12-13T10:36:19.371Z,35.26
2018-12-13T10:37:19.364Z,35.12
2018-12-13T10:38:19.495Z,35.10
2018-12-13T10:39:19.447Z,35.16
2018-12-13T10:41:19.463Z,35.50
2018-12-13T10:42:19.461Z,35.76
2018-12-13T10:43:19.592Z,35.93
2018-12-13T10:44:19.507Z,36.09
2018-12-13T10:45:19.550Z,36.24
2018-12-13T10:46:19.635Z,36.06
2018-12-13T10:47:19.665Z,36.06
2018-12-13T10:48:19.730Z,36.17
2018-12-13T10:49:19.679Z,36.17
2018-12-13T10:50:19.704Z,36.03
2018-12-13T10:51:19.749Z,36.16
2018-12-13T10:52:20.235Z,36.28
2018-12-13T10:53:19.797Z,36.33
2018-12-13T10:54:19.808Z,36.69
2018-12-13T10:55:19.825Z,36.75
2018-12-13T10:56:19.963Z,36.73
2018-12-13T10:57:19.853Z,36.87
2018-12-13T10:58:19.886Z,36.73
2018-12-13T10:59:19.885Z,36.72
2018-12-13T11:00:19.946Z,36.91
2018-12-13T11:01:20.024Z,37.23
2018-12-13T11:02:19.985Z,37.71
2018-12-13T11:03:19.999Z,37.88
2018-12-13T11:04:20.086Z,37.98
2018-12-13T11:05:20.092Z,38.05
2018-12-13T11:06:20.117Z,38.13
2018-12-13T11:07:20.142Z,38.12
2018-12-13T11:08:20.191Z,38.22
2018-12-13T11:09:20.159Z,38.07
2018-12-13T11:10:25.437Z,37.90
2018-12-13T11:11:20.211Z,37.43
2018-12-13T11:12:20.241Z,37.29
2018-12-13T11:13:20.403Z,37.19
2018-12-13T11:14:20.293Z,36.78
2018-12-13T11:15:20.351Z,37.03
2018-12-13T11:16:20.352Z,37.34
2018-12-13T11:17:20.377Z,37.36
2018-12-13T11:18:20.499Z,37.54
2018-12-13T11:19:20.420Z,37.60
2018-12-13T11:20:20.423Z,37.66
2018-12-13T11:21:20.472Z,37.60
2018-12-13T11:22:20.520Z,37.82
2018-12-13T11:23:20.631Z,37.88
2018-12-13T11:24:20.566Z,37.56
2018-12-13T11:25:20.577Z,37.47
2018-12-13T11:26:20.627Z,37.15
2018-12-13T11:27:20.635Z,37.10
2018-12-13T11:28:20.688Z,37.37
2018-12-13T11:29:20.661Z,37.43
2018-12-13T11:30:20.700Z,37.36
2018-12-13T11:31:20.732Z,37.50
2018-12-13T11:32:20.761Z,37.43
2018-12-13T11:33:20.854Z,37.28
2018-12-13T11:34:20.825Z,37.10
2018-12-13T11:35:20.847Z,37.14
2018-12-13T11:36:20.896Z,37.34
2018-12-13T11:37:20.924Z,37.54
2018-12-13T11:38:21.015Z,37.60
2018-12-13T11:39:20.949Z,37.64
2018-12-13T11:40:20.974Z,37.76
2018-12-13T11:41:21.001Z,37.83
2018-12-13T11:42:21.047Z,38.27
2018-12-13T11:43:21.062Z,38.75
2018-12-13T11:44:21.099Z,38.91
2018-12-13T11:45:21.213Z,38.77
2018-12-13T11:46:21.147Z,38.29
2018-12-13T11:47:22.355Z,38.16
2018-12-13T11:48:21.188Z,38.09
2018-12-13T11:49:21.241Z,38.05
2018-12-13T11:50:21.333Z,38.05
2018-12-13T11:51:21.245Z,38.10
2018-12-13T11:52:21.305Z,38.22
2018-12-13T11:53:21.315Z,38.38
2018-12-13T11:54:21.364Z,38.72
2018-12-13T11:55:21.469Z,38.85
2018-12-13T11:56:21.395Z,38.92
2018-12-13T11:57:21.435Z,39.07
2018-12-13T11:58:21.449Z,39.34
2018-12-13T11:59:21.501Z,39.39
2018-12-13T12:00:21.670Z,39.54
2018-12-13T12:01:21.547Z,39.00
2018-12-13T12:02:24.166Z,38.90
2018-12-13T12:03:21.582Z,38.96
2018-12-13T12:04:21.626Z,39.07
2018-12-13T12:05:21.628Z,38.95
2018-12-13T12:06:21.679Z,38.98
2018-12-13T12:07:21.702Z,39.12
2018-12-13T12:08:21.707Z,39.26
2018-12-13T12:09:21.747Z,39.19
2018-12-13T12:10:21.765Z,39.34
2018-12-13T12:11:21.889Z,39.44
2018-12-13T12:12:21.867Z,39.61
2018-12-13T12:13:21.868Z,40.13
2018-12-13T12:14:21.927Z,40.43
2018-12-13T12:15:21.915Z,40.71
2018-12-13T12:16:22.144Z,40.88
2018-12-13T12:17:21.977Z,40.98
2018-12-13T12:18:22.010Z,40.98
2018-12-13T12:19:22.017Z,41.20
2018-12-13T12:20:22.048Z,41.11
2018-12-13T12:21:22.167Z,41.11
2018-12-13T12:22:22.134Z,41.04
2018-12-13T12:23:22.182Z,40.89
2018-12-13T12:24:22.207Z,40.96
2018-12-13T12:25:22.234Z,41.03
2018-12-13T12:26:22.358Z,40.89
2018-12-13T12:27:22.303Z,40.74
2018-12-13T12:28:22.315Z,40.81
2018-12-13T12:29:22.300Z,40.46
2018-12-13T12:30:22.330Z,40.39
2018-12-13T12:31:22.394Z,40.07
2018-12-13T12:32:22.521Z,39.82
2018-12-13T12:33:22.445Z,39.73
2018-12-13T12:34:22.449Z,39.61
2018-12-13T12:35:22.486Z,39.76
2018-12-13T12:36:22.508Z,39.49
2018-12-13T12:37:22.642Z,39.61
2018-12-13T12:38:22.578Z,39.71
2018-12-13T12:39:22.602Z,40.00
2018-12-13T12:40:22.635Z,40.10
2018-12-13T12:41:22.648Z,40.29
2018-12-13T12:42:22.786Z,39.88
2018-12-13T12:43:22.761Z,39.56
2018-12-13T12:44:22.736Z,39.73
2018-12-13T12:45:22.772Z,40.26
2018-12-13T12:46:22.799Z,40.81
2018-12-13T12:47:22.935Z,41.20
2018-12-13T12:48:22.849Z,41.49
2018-12-13T12:49:22.872Z,41.64
2018-12-13T12:50:22.918Z,41.88
2018-12-13T12:51:22.931Z,42.00
2018-12-13T12:52:23.078Z,42.09
2018-12-13T12:53:23.030Z,42.28
2018-12-13T12:54:23.019Z,42.43
2018-12-13T12:55:23.134Z,42.34